Time;durP1;ratioP1;P1;durP2;ratioP2;P2;SDS_P1;SDS_P2;PMS_P1;PMS_P2;Temp;Humidity;BMP_temperature;BMP_pressure;BME280_temperature;BME280_humidity;BME280_pressure;Samples;Min_cycle;Max_cycle;Signal;HPM_P1;HPM_P2
2021/05/18 00:00:41;;;;;;;3.33;1.83;;;;;;;14.07;60.33;99187.06;4867104;28;97561;-83
2021/05/18 00:03:08;;;;;;;4.40;2.15;;;;;;;14.06;60.52;99187.19;4864957;28;100335;-84
2021/05/18 00:05:36;;;;;;;5.28;2.10;;;;;;;14.07;60.44;99189.69;4896354;28;98072;-85
2021/05/18 00:08:05;;;;;;;3.28;1.80;;;;;;;14.08;60.41;99191.41;4879995;28;96849;-84
2021/05/18 00:13:19;;;;;;;8.07;2.38;;;;;;;13.96;60.47;99194.84;4868213;28;101419;-84
2021/05/18 00:15:46;;;;;;;2.45;1.55;;;;;;;13.92;60.82;99196.84;4864593;28;101556;-82
2021/05/18 00:18:12;;;;;;;2.78;1.60;;;;;;;13.92;60.52;99196.00;4896898;28;97226;-84
2021/05/18 00:20:37;;;;;;;4.57;1.60;;;;;;;13.87;60.93;99200.72;4880344;28;96871;-84
2021/05/18 00:23:05;;;;;;;5.43;1.80;;;;;;;13.77;61.10;99198.69;4878537;28;98370;-85
2021/05/18 00:25:31;;;;;;;4.50;1.85;;;;;;;13.78;60.93;99204.78;4876918;28;101420;-84
2021/05/18 00:27:56;;;;;;;3.40;1.80;;;;;;;13.75;60.64;99200.56;4859823;28;96659;-83
2021/05/18 00:30:23;;;;;;;3.75;1.60;;;;;;;13.79;60.55;99201.22;4873886;28;97362;-84
2021/05/18 00:32:49;;;;;;;2.70;1.40;;;;;;;13.79;60.68;99209.16;4879196;28;101298;-82
2021/05/18 00:35:15;;;;;;;3.45;1.30;;;;;;;13.78;60.42;99212.72;4881531;28;98026;-86
2021/05/18 00:37:40;;;;;;;4.55;1.25;;;;;;;13.79;60.11;99206.50;4864635;28;97260;-86
2021/05/18 00:40:12;;;;;;;2.08;1.27;;;;;;;13.79;60.51;99201.22;4864533;28;96941;-86
2021/05/18 00:42:47;;;;;;;2.97;1.20;;;;;;;13.75;60.51;99200.56;4880638;28;97399;-84
2021/05/18 00:45:14;;;;;;;2.25;1.30;;;;;;;13.76;60.42;99201.44;4880320;28;101488;-84
2021/05/18 00:47:39;;;;;;;3.88;1.15;;;;;;;13.79;60.14;99209.97;4879829;28;96978;-84
2021/05/18 00:50:05;;;;;;;5.70;1.35;;;;;;;13.78;60.13;99200.34;4895800;28;97238;-84
2021/05/18 00:52:31;;;;;;;3.88;1.02;;;;;;;13.81;60.15;99208.06;4880007;28;101744;-83
2021/05/18 00:55:05;;;;;;;3.55;1.50;;;;;;;13.85;59.84;99213.19;4863397;28;101436;-83
2021/05/18 01:00:16;;;;;;;2.13;1.17;;;;;;;13.82;60.24;99211.59;4882498;28;96813;-85
2021/05/18 01:02:46;;;;;;;3.53;1.20;;;;;;;13.85;59.74;99214.03;4864414;28;101636;-84
2021/05/18 01:05:19;;;;;;;4.10;1.20;;;;;;;13.84;59.37;99214.09;4895915;28;97823;-84
2021/05/18 01:07:49;;;;;;;3.13;1.00;;;;;;;13.84;60.12;99227.28;4864647;28;96743;-82
2021/05/18 01:10:16;;;;;;;2.33;1.08;;;;;;;13.81;59.74;99221.25;4879347;28;96743;-84
2021/05/18 01:12:42;;;;;;;1.60;1.15;;;;;;;13.80;59.83;99216.09;4878949;28;101713;-86
2021/05/18 01:15:10;;;;;;;1.70;0.98;;;;;;;13.85;59.73;99223.72;4863465;28;100323;-86
2021/05/18 01:17:36;;;;;;;1.67;1.02;;;;;;;13.87;59.84;99227.09;4864374;28;96879;-83
2021/05/18 01:20:12;;;;;;;2.85;1.35;;;;;;;13.87;59.57;99224.44;4879758;28;96983;-84
2021/05/18 01:22:44;;;;;;;2.78;1.10;;;;;;;13.83;59.76;99221.19;4864213;28;101692;-84
2021/05/18 01:25:11;;;;;;;2.75;1.40;;;;;;;13.82;59.87;99228.25;4879228;28;100295;-84
2021/05/18 01:27:38;;;;;;;3.53;1.50;;;;;;;13.78;59.69;99232.00;4880101;28;97046;-85
2021/05/18 01:30:06;;;;;;;2.45;1.52;;;;;;;13.80;59.79;99226.66;4880012;28;97048;-83
2021/05/18 01:32:36;;;;;;;7.75;1.55;;;;;;;13.72;60.40;99232.41;4881167;28;98373;-86
2021/05/18 01:35:03;;;;;;;2.35;1.38;;;;;;;13.77;59.86;99237.41;4878899;28;100700;-85
2021/05/18 01:37:29;;;;;;;3.22;1.80;;;;;;;13.75;59.90;99237.47;4879600;28;97459;-85
2021/05/18 01:42:47;;;;;;;3.97;1.80;;;;;;;13.81;59.67;99241.53;4885398;28;101611;-86
2021/05/18 01:45:19;;;;;;;2.92;1.67;;;;;;;13.75;59.80;99247.19;4883252;28;100456;-85
2021/05/18 01:47:51;;;;;;;3.53;1.60;;;;;;;13.72;59.85;99244.75;4867715;28;96887;-84
2021/05/18 01:50:30;;;;;;;4.10;1.58;;;;;;;13.65;59.76;99239.03;4870945;28;97044;-83
2021/05/18 01:52:57;;;;;;;4.07;1.85;;;;;;;13.59;60.05;99237.63;4882751;28;98409;-84
2021/05/18 01:57:53;;;;;;;3.35;1.65;;;;;;;13.67;60.17;99249.47;4883052;28;96568;-84
2021/05/18 02:00:23;;;;;;;2.80;1.50;;;;;;;13.64;59.89;99249.66;4883214;28;96937;-84
2021/05/18 02:02:56;;;;;;;3.75;1.40;;;;;;;13.63;60.72;99247.97;4868066;28;101664;-84
2021/05/18 02:05:35;;;;;;;2.60;1.30;;;;;;;13.66;60.21;99259.19;4884019;28;101649;-85
2021/05/18 02:08:27;;;;;;;2.90;1.50;;;;;;;13.69;59.92;99258.13;4899826;28;96942;-84
2021/05/18 02:10:58;;;;;;;2.30;1.13;;;;;;;13.68;60.09;99256.44;4868001;28;96719;-83
2021/05/18 02:13:24;;;;;;;2.85;1.00;;;;;;;13.72;59.98;99263.22;4898613;28;101573;-84
2021/05/18 02:15:57;;;;;;;6.68;1.23;;;;;;;13.71;59.92;99272.91;4882704;28;99796;-82
2021/05/18 02:26:14;;;;;;;2.83;1.20;;;;;;;13.69;60.30;99272.16;4884180;28;100330;-84
2021/05/18 02:28:46;;;;;;;2.85;1.20;;;;;;;13.71;60.71;99280.84;4898137;28;97135;-84
2021/05/18 02:31:12;;;;;;;3.00;1.05;;;;;;;13.67;60.21;99283.75;4882382;28;97277;-84
2021/05/18 02:33:45;;;;;;;1.30;0.90;;;;;;;13.59;60.20;99285.09;4881932;28;100886;-83
2021/05/18 02:36:11;;;;;;;2.92;1.05;;;;;;;13.65;60.28;99281.22;4866668;28;100970;-85
2021/05/18 02:38:39;;;;;;;3.63;0.98;;;;;;;13.71;60.15;99294.03;4898758;28;96637;-83
2021/05/18 02:41:11;;;;;;;3.08;1.20;;;;;;;13.65;60.26;99299.69;4882438;28;96718;-84
2021/05/18 02:43:50;;;;;;;4.72;1.38;;;;;;;13.64;59.88;99283.94;4866462;28;100232;-84
2021/05/18 02:51:31;;;;;;;2.17;0.98;;;;;;;13.58;60.13;99288.69;4898784;28;96853;-84
2021/05/18 02:53:58;;;;;;;1.50;1.00;;;;;;;13.59;60.24;99289.53;4865302;28;101275;-83
2021/05/18 02:56:47;;;;;;;2.72;1.23;;;;;;;13.56;60.36;99297.63;4866562;28;101345;-84
2021/05/18 02:59:19;;;;;;;5.40;1.40;;;;;;;13.60;59.77;99293.84;4884895;28;96774;-85
2021/05/18 03:01:47;;;;;;;2.53;1.48;;;;;;;13.64;59.34;99297.13;4884064;28;96844;-85
2021/05/18 03:04:13;;;;;;;3.25;1.60;;;;;;;13.56;60.14;99302.91;4865755;28;101460;-84
2021/05/18 03:06:39;;;;;;;2.92;1.40;;;;;;;13.55;60.03;99301.19;4866319;28;101206;-84
2021/05/18 03:09:09;;;;;;;4.25;1.42;;;;;;;13.57;59.68;99304.59;4881452;28;96967;-84
2021/05/18 03:11:36;;;;;;;3.97;1.50;;;;;;;13.53;60.24;99303.09;4883030;28;97088;-86
2021/05/18 03:14:03;;;;;;;4.07;1.40;;;;;;;13.50;59.90;99312.03;4881372;28;98870;-85
2021/05/18 03:16:29;;;;;;;2.50;1.30;;;;;;;13.51;60.29;99315.50;4882025;28;101245;-83
2021/05/18 03:18:55;;;;;;;2.80;1.38;;;;;;;13.54;60.24;99321.44;4866580;28;96604;-82
2021/05/18 03:21:21;;;;;;;1.77;1.20;;;;;;;13.56;59.89;99305.53;4882407;28;96827;-85
2021/05/18 03:23:46;;;;;;;3.38;1.23;;;;;;;13.52;60.17;99311.94;4865205;28;100433;-84
2021/05/18 03:26:12;;;;;;;2.70;1.38;;;;;;;13.53;59.95;99308.38;4866097;28;100927;-84
2021/05/18 03:28:38;;;;;;;2.67;1.20;;;;;;;13.52;59.73;99312.75;4866150;28;96703;-85
2021/05/18 03:36:13;;;;;;;3.05;1.10;;;;;;;13.54;59.26;99316.16;4897320;28;99574;-84
2021/05/18 03:38:44;;;;;;;4.15;1.65;;;;;;;13.49;60.22;99310.31;4882203;28;96611;-84
2021/05/18 03:41:31;;;;;;;4.55;1.42;;;;;;;13.48;59.80;99313.91;4882144;28;96825;-84
2021/05/18 04:04:56;;;;;;;5.50;1.48;;;;;;;13.57;59.84;99337.06;4871484;28;98516;-84
2021/05/18 04:13:04;;;;;;;5.13;1.50;;;;;;;13.61;60.07;99345.63;4897270;28;96739;-85
2021/05/18 04:18:16;;;;;;;5.30;1.23;;;;;;;13.59;60.31;99347.53;4873011;28;99392;-84
2021/05/18 04:23:45;;;;;;;4.68;1.30;;;;;;;13.71;59.72;99353.84;4872583;28;97055;-84
2021/05/18 05:04:09;;;;;;;3.40;1.50;;;;;;;14.13;59.91;99381.09;4869588;28;97000;-85
2021/05/18 05:06:44;;;;;;;2.88;1.38;;;;;;;14.16;59.24;99383.53;4861662;28;97324;-85
2021/05/18 05:14:28;;;;;;;8.93;1.70;;;;;;;14.12;59.21;99385.53;4883051;28;96677;-85
2021/05/18 05:16:54;;;;;;;2.95;1.58;;;;;;;14.08;59.49;99384.03;4883605;28;96927;-85
2021/05/18 05:19:21;;;;;;;6.00;1.73;;;;;;;14.15;59.47;99384.47;4883157;28;98402;-85
2021/05/18 05:21:46;;;;;;;4.13;1.48;;;;;;;14.20;59.48;99391.16;4867902;28;101351;-86
2021/05/18 05:24:13;;;;;;;2.92;1.70;;;;;;;14.30;59.27;99394.06;4914269;28;96955;-86
2021/05/18 05:26:39;;;;;;;2.58;1.25;;;;;;;14.38;59.14;99391.78;4883551;28;96642;-85
2021/05/18 05:29:06;;;;;;;4.63;1.50;;;;;;;14.45;58.96;99403.63;4871742;28;99614;-84
2021/05/18 05:31:32;;;;;;;4.00;1.42;;;;;;;14.51;58.79;99405.03;4872471;28;97533;-83
2021/05/18 05:33:59;;;;;;;6.43;1.65;;;;;;;14.66;58.39;99401.44;4856282;28;97069;-85
2021/05/18 05:36:24;;;;;;;3.20;1.38;;;;;;;14.86;58.12;99415.94;4856377;28;97234;-85
2021/05/18 05:38:50;;;;;;;3.13;1.58;;;;;;;15.01;57.56;99405.31;4873287;28;100925;-85
2021/05/18 05:41:18;;;;;;;7.55;1.65;;;;;;;15.23;57.29;99404.72;4873025;28;101084;-85
2021/05/18 05:43:43;;;;;;;4.80;1.33;;;;;;;15.30;57.07;99409.50;4873515;28;96831;-85
2021/05/18 05:46:09;;;;;;;6.95;1.42;;;;;;;15.25;57.25;99408.13;4889373;28;96841;-82
2021/05/18 05:48:35;;;;;;;3.95;1.50;;;;;;;15.20;57.21;99399.66;4886726;28;99033;-84
2021/05/18 05:51:03;;;;;;;9.73;1.15;;;;;;;15.29;57.64;99407.81;4864431;28;101889;-84
2021/05/18 05:53:28;;;;;;;4.55;1.40;;;;;;;15.31;57.66;99415.66;4855856;28;96846;-84
2021/05/18 05:55:54;;;;;;;4.22;1.42;;;;;;;15.31;57.17;99415.66;4889090;28;97546;-85
2021/05/18 05:58:19;;;;;;;3.20;1.30;;;;;;;15.37;57.12;99404.66;4866005;28;101570;-82
2021/05/18 06:00:45;;;;;;;1.48;1.08;;;;;;;15.44;56.92;99407.72;4882516;28;98306;-86
2021/05/18 06:03:11;;;;;;;3.58;1.10;;;;;;;15.34;57.27;99410.16;4866604;28;96973;-84
2021/05/18 06:05:37;;;;;;;3.80;1.30;;;;;;;15.35;57.30;99401.25;4872983;28;96971;-85
2021/05/18 06:08:03;;;;;;;4.55;1.23;;;;;;;15.34;56.97;99410.16;4866702;28;98555;-86
2021/05/18 06:10:32;;;;;;;2.75;1.17;;;;;;;15.37;57.23;99412.56;4863671;28;101180;-83
2021/05/18 06:13:11;;;;;;;5.88;1.30;;;;;;;15.52;57.10;99408.88;4863651;28;96997;-85
2021/05/18 06:42:36;;;;;;;3.65;1.40;;;;;;;20.72;46.46;99430.63;4896825;28;101336;-84
2021/05/18 06:47:47;;;;;;;6.53;1.30;;;;;;;19.92;47.87;99439.47;4884004;28;97055;-84
2021/05/18 06:52:38;;;;;;;3.08;1.13;;;;;;;20.53;46.80;99434.09;4862962;28;101809;-83
2021/05/18 06:55:09;;;;;;;2.83;1.10;;;;;;;20.27;46.97;99439.88;4860689;28;96805;-82
2021/05/18 06:57:40;;;;;;;7.38;1.23;;;;;;;20.95;46.21;99447.22;4876237;28;96982;-83
2021/05/18 07:00:11;;;;;;;4.85;1.27;;;;;;;21.10;45.29;99440.47;4883360;28;98088;-84
2021/05/18 07:02:39;;;;;;;9.05;1.10;;;;;;;20.92;45.63;99443.00;4886174;28;97559;-85
2021/05/18 07:05:16;;;;;;;3.03;1.58;;;;;;;20.82;45.92;99441.28;4846669;28;96900;-87
2021/05/18 07:07:47;;;;;;;4.82;1.35;;;;;;;20.52;46.40;99443.91;4846801;28;96847;-83
2021/05/18 07:10:16;;;;;;;5.45;1.20;;;;;;;20.33;47.09;99451.81;4851914;28;101827;-84
2021/05/18 07:12:42;;;;;;;2.83;1.48;;;;;;;20.07;47.83;99451.44;4881206;28;98206;-84
2021/05/18 07:15:11;;;;;;;3.38;1.88;;;;;;;19.95;47.92;99455.19;4902961;28;97387;-85
2021/05/18 07:17:37;;;;;;;3.42;1.40;;;;;;;19.49;48.72;99441.31;4927217;28;97267;-85
2021/05/18 07:20:03;;;;;;;2.00;1.10;;;;;;;19.35;48.87;99457.59;4878860;28;98581;-84
2021/05/18 07:22:29;;;;;;;1.65;1.00;;;;;;;19.42;48.99;99446.28;4880530;28;99567;-84
2021/05/18 07:24:55;;;;;;;3.50;1.27;;;;;;;19.53;48.84;99456.03;4876868;28;96903;-85
2021/05/18 07:27:21;;;;;;;4.55;1.30;;;;;;;19.84;48.56;99462.28;4877622;28;96822;-84
2021/05/18 07:29:47;;;;;;;3.45;1.30;;;;;;;20.09;48.03;99452.16;4846349;28;101789;-85
2021/05/18 07:32:12;;;;;;;4.15;1.10;;;;;;;20.41;47.59;99454.66;4877841;28;97577;-83
2021/05/18 07:34:38;;;;;;;3.25;1.58;;;;;;;20.83;47.47;99465.19;4860336;28;97828;-84
2021/05/18 07:37:04;;;;;;;5.70;1.70;;;;;;;20.78;47.74;99452.25;4860990;28;96974;-83
2021/05/18 07:39:29;;;;;;;4.97;1.92;;;;;;;21.29;47.42;99460.13;4860473;28;98114;-81
2021/05/18 07:41:55;;;;;;;2.67;1.42;;;;;;;21.81;46.08;99455.28;4861388;28;97842;-80
2021/05/18 07:44:21;;;;;;;4.28;1.27;;;;;;;22.24;44.74;99457.41;4892527;28;96701;-82
2021/05/18 07:46:47;;;;;;;4.55;1.77;;;;;;;22.75;43.83;99461.34;4872363;28;97248;-80
2021/05/18 07:50:00;;;;;;;3.15;1.00;;;;;;;22.94;44.51;99462.19;4876309;28;98539;-81
2021/05/18 21:26:10;;;;;;;4.72;3.00;;;;;;;14.12;63.35;99752.34;5034542;28;96554;-82
2021/05/18 21:28:36;;;;;;;8.48;3.25;;;;;;;14.03;63.61;99748.47;5021187;28;96052;-82
2021/05/18 21:31:02;;;;;;;5.57;3.40;;;;;;;14.12;63.57;99747.09;5012296;28;96515;-80
2021/05/18 21:33:27;;;;;;;5.40;3.00;;;;;;;14.15;62.90;99746.91;4980372;28;100276;-84
2021/05/18 21:35:53;;;;;;;8.85;3.35;;;;;;;14.16;63.17;99747.75;4979979;28;96992;-86
2021/05/18 21:38:18;;;;;;;5.75;3.03;;;;;;;14.13;63.18;99745.28;4978668;28;97017;-84
2021/05/18 21:43:15;;;;;;;3.97;3.35;;;;;;;14.26;62.83;99759.50;5011850;28;98198;-85
2021/05/18 21:45:41;;;;;;;4.60;2.92;;;;;;;14.30;62.35;99757.50;4978805;28;96727;-86
2021/05/18 21:48:07;;;;;;;5.07;3.20;;;;;;;14.33;62.40;99767.91;4993639;28;96671;-85
2021/05/18 21:50:33;;;;;;;5.93;3.13;;;;;;;14.32;61.99;99772.31;4995404;28;97858;-85
2021/05/18 21:53:00;;;;;;;4.15;3.30;;;;;;;14.26;62.70;99762.97;4995566;28;97596;-85
2021/05/18 21:55:26;;;;;;;4.97;3.30;;;;;;;14.23;62.70;99768.44;4995223;28;96671;-85
2021/05/18 21:57:51;;;;;;;5.95;2.90;;;;;;;14.18;62.54;99762.56;4995867;28;96874;-85
2021/05/18 22:00:23;;;;;;;3.40;2.80;;;;;;;14.13;62.49;99761.13;4994067;28;100901;-84
2021/05/18 22:02:48;;;;;;;4.28;2.88;;;;;;;14.08;62.80;99774.59;5011979;28;100356;-85
2021/05/18 22:05:15;;;;;;;4.03;2.78;;;;;;;14.04;62.68;99771.25;4994702;28;97006;-85
2021/05/18 22:07:43;;;;;;;6.40;2.85;;;;;;;14.09;63.03;99768.38;4979341;28;97317;-85
2021/05/18 22:10:32;;;;;;;3.90;2.53;;;;;;;14.11;62.71;99769.16;4994155;28;101521;-85
2021/05/18 22:26:20;;;;;;;6.05;3.00;;;;;;;13.65;64.14;99781.44;5011143;28;96926;-85
2021/05/18 22:28:46;;;;;;;6.28;3.13;;;;;;;13.70;63.93;99785.53;4978970;28;97205;-85
2021/05/18 22:31:14;;;;;;;4.35;3.28;;;;;;;13.61;64.55;99782.53;4994259;28;98286;-85
2021/05/18 22:33:40;;;;;;;6.32;3.33;;;;;;;13.56;64.86;99773.09;5011443;28;98172;-84
2021/05/18 22:36:06;;;;;;;8.30;3.22;;;;;;;13.48;64.93;99777.94;4973387;28;96593;-83
2021/05/18 22:38:32;;;;;;;7.38;3.92;;;;;;;13.45;64.90;99783.38;4981844;28;96796;-85
2021/05/18 22:40:58;;;;;;;5.55;4.10;;;;;;;13.42;64.96;99787.97;4981188;28;101501;-85
2021/05/18 22:43:24;;;;;;;6.15;3.60;;;;;;;13.41;65.03;99789.75;4980388;28;100340;-85
2021/05/18 22:45:51;;;;;;;6.80;3.70;;;;;;;13.42;64.88;99787.97;4965539;28;96589;-85
2021/05/18 22:48:17;;;;;;;4.32;3.22;;;;;;;13.43;65.25;99787.88;4981028;28;96636;-85
2021/05/18 22:50:43;;;;;;;6.10;3.45;;;;;;;13.39;64.92;99790.78;4964636;28;101191;-86
2021/05/18 22:53:09;;;;;;;7.35;3.60;;;;;;;13.27;65.03;99784.38;4997744;28;97943;-83
2021/05/18 22:55:36;;;;;;;5.07;4.00;;;;;;;13.28;65.63;99786.06;4998568;28;96528;-84
2021/05/18 22:58:02;;;;;;;6.05;3.67;;;;;;;13.33;65.66;99797.22;4981952;28;96650;-85
2021/05/18 23:00:28;;;;;;;6.82;4.53;;;;;;;13.20;65.87;99786.44;4980515;28;100173;-84
2021/05/18 23:02:55;;;;;;;5.00;3.88;;;;;;;13.18;65.93;99788.31;4965032;28;100137;-85
2021/05/18 23:05:21;;;;;;;4.60;3.72;;;;;;;13.13;65.82;99783.28;4964627;28;96964;-85
2021/05/18 23:07:46;;;;;;;5.63;3.83;;;;;;;13.09;65.86;99786.16;4982038;28;97140;-85
2021/05/18 23:10:13;;;;;;;5.93;4.03;;;;;;;13.13;66.19;99790.34;4980283;28;101327;-82
2021/05/18 23:12:39;;;;;;;6.80;4.55;;;;;;;13.13;65.78;99787.69;4981050;28;101305;-84
2021/05/18 23:15:06;;;;;;;6.60;4.50;;;;;;;13.12;65.77;99786.00;4964955;28;96979;-85
2021/05/18 23:17:32;;;;;;;9.65;4.32;;;;;;;13.07;65.85;99786.25;4980868;28;97021;-84
2021/05/18 23:19:59;;;;;;;5.90;4.28;;;;;;;13.03;66.24;99781.19;4981118;28;101111;-85
2021/05/18 23:22:25;;;;;;;10.95;5.53;;;;;;;13.08;65.94;99774.75;4963757;28;101417;-84
2021/05/18 23:24:50;;;;;;;9.13;4.38;;;;;;;13.03;66.46;99776.81;4997463;28;96616;-85
2021/05/18 23:27:16;;;;;;;7.05;5.13;;;;;;;13.00;66.43;99774.34;4964205;28;96849;-85
2021/05/18 23:29:42;;;;;;;4.53;4.03;;;;;;;13.01;66.03;99768.13;4980629;28;100541;-85
2021/05/18 23:32:08;;;;;;;6.15;4.75;;;;;;;13.01;65.75;99767.28;4980664;28;101249;-85
2021/05/18 23:34:38;;;;;;;6.13;4.47;;;;;;;13.05;65.60;99774.91;4964030;28;96632;-85
2021/05/18 23:37:06;;;;;;;7.50;4.72;;;;;;;13.08;65.63;99773.91;4981703;28;96735;-85
2021/05/18 23:39:33;;;;;;;6.82;4.60;;;;;;;13.07;65.36;99777.50;4977568;28;100640;-84
2021/05/18 23:41:58;;;;;;;8.75;5.00;;;;;;;13.12;65.32;99778.94;4995343;28;98009;-84
2021/05/18 23:44:24;;;;;;;10.07;5.35;;;;;;;13.10;65.26;99780.81;4963579;28;97061;-84
2021/05/18 23:46:50;;;;;;;9.65;5.55;;;;;;;13.03;65.33;99781.19;4980708;28;97157;-85
2021/05/18 23:49:15;;;;;;;7.03;4.30;;;;;;;13.02;65.05;99764.53;4962231;28;101395;-83
2021/05/18 23:51:44;;;;;;;7.50;5.25;;;;;;;12.86;66.28;99769.78;4964017;28;100955;-85
2021/05/18 23:54:16;;;;;;;11.45;5.47;;;;;;;12.77;65.97;99765.00;4980637;28;97320;-85
2021/05/18 23:56:42;;;;;;;8.60;5.40;;;;;;;12.62;66.38;99768.41;4981141;28;96864;-85
2021/05/18 23:59:08;;;;;;;8.00;4.70;;;;;;;12.70;66.31;99771.50;4980359;28;101416;-85
